Time;durP1;ratioP1;P1;durP2;ratioP2;P2;SDS_P1;SDS_P2;PMS_P1;PMS_P2;Temp;Humidity;BMP_temperature;BMP_pressure;BME280_temperature;BME280_humidity;BME280_pressure;Samples;Min_cycle;Max_cycle;Signal;HPM_P1;HPM_P2
2022/05/25 00:00:37;;;;;;;1.15;0.45;;;14.80;96.50;;;;;;6228481;28;20064;-84
2022/05/25 00:03:39;;;;;;;5.57;0.60;;;14.90;96.50;;;;;;6229323;28;20116;-84
2022/05/25 00:06:41;;;;;;;4.45;0.40;;;14.90;96.40;;;;;;6229752;28;20085;-83
2022/05/25 00:09:44;;;;;;;2.97;0.60;;;14.90;96.40;;;;;;6229194;28;20124;-83
2022/05/25 00:12:46;;;;;;;1.27;0.40;;;14.90;96.30;;;;;;6230550;28;20467;-83
2022/05/25 00:15:48;;;;;;;1.75;0.40;;;14.90;96.30;;;;;;6229692;28;20041;-84
2022/05/25 00:22:09;;;;;;;3.10;0.50;;;14.90;96.50;;;;;;6227893;28;20042;-84
2022/05/25 00:25:14;;;;;;;0.68;0.38;;;14.70;96.60;;;;;;6227542;28;20077;-83
2022/05/25 00:28:17;;;;;;;2.28;0.40;;;14.70;96.70;;;;;;6249272;23;20042;-84
2022/05/25 00:31:18;;;;;;;0.50;0.30;;;14.60;96.80;;;;;;6251531;28;20053;-84
2022/05/25 00:34:20;;;;;;;2.50;0.52;;;14.50;96.80;;;;;;6250949;28;20591;-85
2022/05/25 00:37:22;;;;;;;4.82;0.45;;;14.50;97.00;;;;;;6251003;28;20530;-86
2022/05/25 00:40:28;;;;;;;0.60;0.32;;;14.50;97.10;;;;;;6246843;28;20789;-86
2022/05/25 00:43:30;;;;;;;1.98;0.77;;;14.50;97.10;;;;;;6250790;28;20575;-86
2022/05/25 00:46:35;;;;;;;2.38;0.63;;;14.50;97.20;;;;;;6251349;28;20548;-85
2022/05/25 00:49:37;;;;;;;2.45;1.00;;;14.50;97.30;;;;;;6248280;28;20646;-84
2022/05/25 00:52:41;;;;;;;3.92;0.57;;;14.50;97.30;;;;;;6250485;28;20111;-86
2022/05/25 00:55:45;;;;;;;3.50;0.30;;;14.40;97.30;;;;;;6250394;28;20045;-85
2022/05/25 00:58:51;;;;;;;2.78;0.60;;;14.40;97.10;;;;;;6266447;28;20485;-87
2022/05/25 01:01:53;;;;;;;2.03;0.30;;;14.30;97.10;;;;;;6255170;28;20083;-86
2022/05/25 01:04:54;;;;;;;2.72;0.55;;;14.30;97.30;;;;;;6254329;28;20056;-86
2022/05/25 01:08:06;;;;;;;0.88;0.40;;;14.30;97.30;;;;;;6254070;28;20041;-85
2022/05/25 01:11:21;;;;;;;0.43;0.30;;;14.30;97.20;;;;;;6255440;28;20424;-86
2022/05/25 01:14:38;;;;;;;2.50;0.47;;;14.20;97.10;;;;;;6253840;28;20049;-85
2022/05/25 01:17:57;;;;;;;1.58;0.35;;;14.10;97.10;;;;;;6250322;28;20069;-85
2022/05/25 01:21:03;;;;;;;1.13;0.38;;;14.20;97.20;;;;;;6233975;28;20627;-85
2022/05/25 01:24:22;;;;;;;0.50;0.30;;;14.10;97.20;;;;;;6228084;28;20513;-85
2022/05/25 01:27:36;;;;;;;2.67;0.43;;;14.20;97.30;;;;;;6227812;28;20460;-87
2022/05/25 01:30:42;;;;;;;0.68;0.30;;;14.30;97.20;;;;;;6226947;28;20050;-86
2022/05/25 01:33:50;;;;;;;2.47;0.50;;;14.30;97.40;;;;;;6228149;28;20045;-87
2022/05/25 01:36:58;;;;;;;0.80;0.40;;;14.30;97.40;;;;;;6226298;28;20045;-86
2022/05/25 01:40:08;;;;;;;3.80;0.70;;;14.30;97.30;;;;;;6230236;28;20042;-86
2022/05/25 01:43:15;;;;;;;0.90;0.52;;;14.30;97.30;;;;;;6236030;28;20096;-86
2022/05/25 01:46:23;;;;;;;0.35;0.28;;;14.40;97.30;;;;;;6230015;28;20069;-86
2022/05/25 01:49:32;;;;;;;5.95;0.50;;;14.40;97.20;;;;;;6229551;28;20046;-88
2022/05/25 01:52:37;;;;;;;2.47;0.30;;;14.40;97.20;;;;;;6227989;28;20056;-88
2022/05/25 01:55:43;;;;;;;0.98;0.30;;;14.40;97.20;;;;;;6228249;28;20045;-87
2022/05/25 01:58:47;;;;;;;3.53;0.45;;;14.40;97.10;;;;;;6227663;28;20052;-85
2022/05/25 02:04:19;;;;;;;1.30;0.50;;;14.40;97.10;;;;;;6227964;28;20398;-87
2022/05/25 02:05:17;;;;;;;1.63;1.08;;;14.40;97.10;;;;;;6226788;28;20549;-87
2022/05/25 02:08:28;;;;;;;5.10;0.40;;;14.40;97.00;;;;;;6227240;28;20046;-85
2022/05/25 02:11:34;;;;;;;3.10;0.50;;;14.30;97.10;;;;;;6229674;28;20049;-85
2022/05/25 02:14:49;;;;;;;0.90;0.50;;;14.30;97.20;;;;;;6229966;28;20054;-84
2022/05/25 02:17:59;;;;;;;0.93;0.50;;;14.30;97.40;;;;;;6227533;28;20046;-84
2022/05/25 02:21:06;;;;;;;1.88;1.23;;;14.30;97.40;;;;;;6225794;28;20127;-86
2022/05/25 02:24:15;;;;;;;0.22;0.20;;;14.30;97.40;;;;;;6226946;28;20046;-84
2022/05/25 02:27:22;;;;;;;1.35;0.30;;;14.30;97.40;;;;;;6227964;28;20133;-86
2022/05/25 02:30:26;;;;;;;1.83;0.30;;;14.30;97.30;;;;;;6225308;28;20129;-86
2022/05/25 02:33:34;;;;;;;0.68;0.55;;;14.20;97.20;;;;;;6225956;28;20057;-85
2022/05/25 02:36:38;;;;;;;0.80;0.32;;;14.20;97.20;;;;;;6226455;28;20049;-86
2022/05/25 02:39:40;;;;;;;0.73;0.50;;;14.30;97.20;;;;;;6225131;28;20042;-85
2022/05/25 02:42:42;;;;;;;0.85;0.40;;;14.20;97.20;;;;;;6225765;28;20054;-86
2022/05/25 02:45:46;;;;;;;0.70;0.65;;;14.20;97.30;;;;;;6226007;28;20118;-84
2022/05/25 02:48:49;;;;;;;0.68;0.35;;;14.10;97.30;;;;;;6225910;28;20516;-84
2022/05/25 02:51:51;;;;;;;0.52;0.43;;;14.10;97.40;;;;;;6230136;28;20544;-84
2022/05/25 02:54:52;;;;;;;1.10;0.38;;;14.10;97.30;;;;;;6229830;28;20664;-85
2022/05/25 02:57:58;;;;;;;3.83;0.32;;;14.00;97.30;;;;;;6228980;28;20129;-85
2022/05/25 03:01:00;;;;;;;1.35;0.40;;;13.90;97.40;;;;;;6229346;28;20048;-86
2022/05/25 03:04:04;;;;;;;1.30;0.52;;;13.80;97.50;;;;;;6228326;28;20046;-85
2022/05/25 03:07:06;;;;;;;4.28;0.35;;;13.60;97.60;;;;;;6227360;28;20104;-85
2022/05/25 03:10:09;;;;;;;1.67;0.40;;;13.60;97.50;;;;;;6225510;28;20042;-84
2022/05/25 03:13:11;;;;;;;0.70;0.40;;;13.50;97.60;;;;;;6226683;28;20046;-85
2022/05/25 03:16:15;;;;;;;1.55;0.30;;;13.50;97.60;;;;;;6227497;28;20042;-84
2022/05/25 03:19:19;;;;;;;640.80;62.63;;;13.40;97.60;;;;;;6227300;28;20065;-84
2022/05/25 03:22:21;;;;;;;4.38;1.25;;;13.40;97.60;;;;;;6243276;28;20048;-84
2022/05/25 03:25:23;;;;;;;2.65;0.40;;;13.40;97.80;;;;;;6250169;28;20049;-85
2022/05/25 03:28:25;;;;;;;0.60;0.40;;;13.30;97.90;;;;;;6250116;28;20413;-84
2022/05/25 03:31:27;;;;;;;1.75;0.63;;;13.20;98.00;;;;;;6250736;28;20045;-85
2022/05/25 03:34:31;;;;;;;1.90;0.50;;;13.20;98.00;;;;;;6253145;28;20046;-85
2022/05/25 03:37:32;;;;;;;3.35;0.43;;;13.10;97.90;;;;;;6251820;28;20053;-83
2022/05/25 03:40:34;;;;;;;1.25;0.55;;;13.10;97.90;;;;;;6251245;28;20563;-85
2022/05/25 03:43:39;;;;;;;3.03;0.30;;;13.20;97.90;;;;;;6252122;28;20049;-85
2022/05/25 03:46:41;;;;;;;1.00;0.30;;;13.20;97.90;;;;;;6252865;28;20047;-83
2022/05/25 03:49:44;;;;;;;1.42;0.32;;;13.20;97.90;;;;;;6251405;28;20471;-84
2022/05/25 03:52:46;;;;;;;0.70;0.45;;;13.20;98.00;;;;;;6250789;28;20057;-84
2022/05/25 03:55:48;;;;;;;1.52;0.50;;;13.20;98.00;;;;;;6251781;28;20046;-84
2022/05/25 03:58:50;;;;;;;2.85;0.63;;;13.10;98.00;;;;;;6254842;28;20045;-84
2022/05/25 04:01:52;;;;;;;1.60;0.50;;;13.10;98.10;;;;;;6256136;28;20056;-84
2022/05/25 04:05:08;;;;;;;4.15;0.63;;;13.10;98.40;;;;;;6256754;28;20061;-85
2022/05/25 04:08:10;;;;;;;2.15;0.63;;;13.10;98.30;;;;;;6255821;28;20064;-84
2022/05/25 04:11:12;;;;;;;1.48;0.50;;;13.10;98.00;;;;;;6256023;28;20081;-85
2022/05/25 04:14:15;;;;;;;0.75;0.45;;;12.90;97.90;;;;;;6256399;28;20420;-86
2022/05/25 04:17:18;;;;;;;1.90;0.47;;;12.90;98.00;;;;;;6255942;28;20559;-85
2022/05/25 04:20:22;;;;;;;1.15;0.68;;;13.00;98.00;;;;;;6250109;28;20125;-84
2022/05/25 04:23:26;;;;;;;0.45;0.30;;;13.00;97.90;;;;;;6243739;28;20053;-86
2022/05/25 04:26:30;;;;;;;3.00;0.77;;;12.90;97.80;;;;;;6258303;28;20057;-87
2022/05/25 04:29:32;;;;;;;1.08;0.50;;;12.90;97.80;;;;;;6256610;28;20111;-85
2022/05/25 04:32:34;;;;;;;2.38;0.50;;;12.90;97.80;;;;;;6258365;28;20492;-86
2022/05/25 04:35:37;;;;;;;2.55;0.70;;;12.90;97.80;;;;;;6257019;28;20053;-86
2022/05/25 04:38:39;;;;;;;4.30;0.55;;;13.00;97.90;;;;;;6256625;28;20049;-86
2022/05/25 04:41:41;;;;;;;6.20;0.50;;;13.00;97.70;;;;;;6257628;28;20088;-87
2022/05/25 04:44:43;;;;;;;2.00;0.50;;;13.00;97.60;;;;;;6256412;28;20401;-85
2022/05/25 04:47:45;;;;;;;1.83;0.50;;;13.20;97.60;;;;;;6257223;28;20053;-86
2022/05/25 04:50:49;;;;;;;1.13;0.50;;;13.60;97.30;;;;;;6257639;28;20129;-87
2022/05/25 04:53:51;;;;;;;3.42;0.60;;;14.20;96.80;;;;;;6256651;28;20045;-86
2022/05/25 05:00:13;;;;;;;2.58;0.40;;;17.70;92.70;;;;;;6262973;28;20037;-82
2022/05/25 05:03:15;;;;;;;1.20;0.50;;;20.00;88.70;;;;;;6270250;28;20121;-84
2022/05/25 05:06:18;;;;;;;3.35;0.93;;;21.90;81.60;;;;;;6262291;28;20107;-85
2022/05/25 05:09:20;;;;;;;1.20;0.43;;;23.70;74.70;;;;;;6259776;28;20048;-85
2022/05/25 05:12:22;;;;;;;1.10;0.40;;;25.10;68.10;;;;;;6262177;28;20046;-85
2022/05/25 05:15:23;;;;;;;4.03;0.70;;;26.20;62.40;;;;;;6262375;28;20060;-84
2022/05/25 05:18:25;;;;;;;10.48;1.35;;;27.20;58.20;;;;;;6265829;28;20075;-85
2022/05/25 05:21:28;;;;;;;3.40;0.75;;;28.00;54.50;;;;;;6256200;28;20048;-84
2022/05/25 05:24:33;;;;;;;3.55;0.60;;;28.70;51.70;;;;;;6254564;28;20045;-85
2022/05/25 05:27:35;;;;;;;1.25;0.50;;;29.60;49.50;;;;;;6258911;28;20049;-85
2022/05/25 05:30:40;;;;;;;3.22;0.57;;;30.60;46.20;;;;;;6258436;28;20076;-84
2022/05/25 05:33:42;;;;;;;2.13;0.50;;;31.90;42.70;;;;;;6257779;28;20051;-84
2022/05/25 05:36:49;;;;;;;1.85;0.50;;;32.90;39.50;;;;;;6253623;28;20049;-84
2022/05/25 05:39:55;;;;;;;2.33;0.40;;;33.70;38.40;;;;;;6258473;28;20097;-82
2022/05/25 05:43:00;;;;;;;4.57;0.63;;;34.50;37.00;;;;;;6268330;28;20831;-84
2022/05/25 05:46:02;;;;;;;0.52;0.30;;;35.00;35.40;;;;;;6253182;28;20128;-85
2022/05/25 05:49:05;;;;;;;3.30;0.93;;;35.40;34.90;;;;;;6252591;28;20053;-85
2022/05/25 05:52:09;;;;;;;3.50;0.60;;;36.20;33.70;;;;;;6251092;28;20415;-85
2022/05/25 05:55:11;;;;;;;2.88;0.40;;;36.70;33.00;;;;;;6250215;28;20049;-85
2022/05/25 05:58:13;;;;;;;0.28;0.20;;;37.30;32.30;;;;;;6248664;28;20045;-85
2022/05/25 06:01:15;;;;;;;0.60;0.40;;;37.90;31.60;;;;;;6248381;28;20434;-85
2022/05/25 06:04:17;;;;;;;2.08;0.50;;;38.30;30.50;;;;;;6248851;28;20037;-84
2022/05/25 06:07:20;;;;;;;0.95;0.32;;;38.50;30.60;;;;;;6248826;28;20049;-85
2022/05/25 06:10:22;;;;;;;2.40;0.70;;;38.30;29.70;;;;;;6248892;28;20045;-85
2022/05/25 06:13:25;;;;;;;2.08;0.50;;;38.50;29.90;;;;;;6249198;28;20068;-83
2022/05/25 06:19:46;;;;;;;2.92;0.30;;;38.70;29.60;;;;;;6252706;28;20042;-86
2022/05/25 06:22:49;;;;;;;1.65;0.22;;;38.50;29.50;;;;;;6247585;28;20056;-85
2022/05/25 06:25:51;;;;;;;3.60;0.60;;;38.30;29.70;;;;;;6244659;28;20049;-85
2022/05/25 06:28:53;;;;;;;2.63;0.40;;;37.70;29.80;;;;;;6284671;23;20041;-83
2022/05/25 06:31:54;;;;;;;2.75;0.70;;;37.30;30.10;;;;;;6238970;28;20109;-83
2022/05/25 06:34:56;;;;;;;2.40;0.30;;;37.30;30.40;;;;;;6236666;28;20080;-82
2022/05/25 06:37:59;;;;;;;7.63;0.60;;;37.60;30.10;;;;;;6232491;28;20528;-83
2022/05/25 06:41:01;;;;;;;1.17;0.40;;;37.50;30.00;;;;;;6233432;28;20129;-82
2022/05/25 06:44:06;;;;;;;2.63;0.28;;;37.60;30.00;;;;;;6215739;28;20420;-82
2022/05/25 06:47:08;;;;;;;0.65;0.40;;;37.60;30.00;;;;;;6223255;28;20486;-83
2022/05/25 06:50:10;;;;;;;1.20;0.40;;;37.80;29.70;;;;;;6208688;28;20129;-81
2022/05/25 06:53:38;;;;;;;1.60;0.43;;;38.10;29.50;;;;;;6210259;28;20053;-83
2022/05/25 07:00:08;;;;;;;2.85;0.57;;;38.30;29.70;;;;;;6188562;28;19921;-83
2022/05/25 07:03:11;;;;;;;2.45;0.60;;;38.60;29.40;;;;;;6210092;28;20118;-82
2022/05/25 07:06:14;;;;;;;1.50;0.47;;;38.90;29.10;;;;;;6207536;28;20043;-83
2022/05/25 07:09:17;;;;;;;0.95;0.50;;;39.00;29.00;;;;;;6208101;28;20109;-82
2022/05/25 07:12:19;;;;;;;0.73;0.30;;;39.20;28.80;;;;;;6211406;28;20125;-84
2022/05/25 07:18:47;;;;;;;2.83;0.35;;;39.00;28.80;;;;;;6235315;28;20412;-82
2022/05/25 07:21:50;;;;;;;2.28;0.40;;;38.20;29.20;;;;;;6235510;28;20481;-82
2022/05/25 07:24:53;;;;;;;1.23;0.45;;;38.20;29.30;;;;;;6226065;28;20064;-82
2022/05/25 07:27:55;;;;;;;2.63;0.47;;;38.40;29.10;;;;;;6231423;28;20049;-82
2022/05/25 07:31:02;;;;;;;3.08;0.65;;;38.50;29.00;;;;;;6231166;28;20052;-82
2022/05/25 07:38:41;;;;;;;1.25;0.57;;;38.40;28.90;;;;;;6211772;28;20046;-84
2022/05/25 07:41:48;;;;;;;2.60;0.30;;;38.90;28.80;;;;;;6220962;28;20050;-82
2022/05/25 07:44:58;;;;;;;5.10;0.30;;;38.80;29.00;;;;;;6229841;28;20056;-86
2022/05/25 07:48:00;;;;;;;2.22;1.02;;;39.20;28.70;;;;;;6223816;28;20053;-82
2022/05/25 07:58:11;;;;;;;3.05;0.52;;;40.20;27.80;;;;;;6193541;28;20319;-82
2022/05/25 08:01:15;;;;;;;3.40;0.70;;;40.50;27.60;;;;;;6214789;28;20050;-82
2022/05/25 08:07:39;;;;;;;4.82;0.35;;;40.80;27.70;;;;;;6211674;28;20038;-82
2022/05/25 08:10:43;;;;;;;0.80;0.40;;;41.20;27.50;;;;;;6213860;28;20053;-85
2022/05/25 08:13:48;;;;;;;4.25;0.47;;;41.50;27.10;;;;;;6215087;28;20049;-82
2022/05/25 08:16:50;;;;;;;5.18;0.50;;;41.70;26.90;;;;;;6239645;28;20057;-82
2022/05/25 08:19:52;;;;;;;5.00;0.40;;;40.90;26.60;;;;;;6240763;28;20038;-82
2022/05/25 08:22:54;;;;;;;1.15;0.50;;;40.20;27.10;;;;;;6240916;28;20045;-82
2022/05/25 08:25:55;;;;;;;3.63;0.20;;;40.10;27.30;;;;;;6228930;28;20521;-82
2022/05/25 08:28:58;;;;;;;4.15;0.20;;;40.30;27.30;;;;;;6240655;28;20045;-82
2022/05/25 08:32:00;;;;;;;3.33;0.40;;;40.50;26.60;;;;;;6225866;28;20053;-82
2022/05/25 08:35:03;;;;;;;2.25;0.25;;;40.50;26.30;;;;;;6215777;28;20073;-82
2022/05/25 08:38:05;;;;;;;2.72;0.35;;;40.50;26.50;;;;;;6213284;28;20086;-82
2022/05/25 08:41:07;;;;;;;2.15;0.40;;;40.60;26.30;;;;;;6213914;28;20125;-82
2022/05/25 08:44:11;;;;;;;2.45;0.30;;;40.80;26.30;;;;;;6216237;28;20528;-81
2022/05/25 08:47:14;;;;;;;1.23;0.20;;;40.80;26.20;;;;;;6238493;28;20507;-81
2022/05/25 08:50:16;;;;;;;0.70;0.25;;;40.60;26.30;;;;;;6234932;28;20061;-82
2022/05/25 08:53:20;;;;;;;1.77;0.40;;;40.90;26.20;;;;;;6231291;28;20054;-81
2022/05/25 08:56:28;;;;;;;3.72;0.40;;;39.20;26.40;;;;;;6237661;28;20073;-83
2022/05/25 08:59:35;;;;;;;1.45;0.40;;;38.60;27.10;;;;;;6236638;28;20060;-81
2022/05/25 09:02:46;;;;;;;3.22;0.50;;;38.20;26.90;;;;;;6235604;28;20056;-82
2022/05/25 09:05:52;;;;;;;1.52;0.30;;;37.30;27.50;;;;;;6237649;28;20050;-81
2022/05/25 09:09:00;;;;;;;0.67;0.27;;;37.40;27.40;;;;;;6233779;28;20048;-81
2022/05/25 09:12:07;;;;;;;2.20;0.20;;;36.70;27.60;;;;;;6237478;28;20046;-82
2022/05/25 09:15:17;;;;;;;2.50;0.43;;;35.80;28.70;;;;;;6232077;28;20100;-81
2022/05/25 09:18:19;;;;;;;1.50;0.20;;;36.70;28.60;;;;;;6234287;28;20049;-82
2022/05/25 09:21:24;;;;;;;0.43;0.20;;;36.30;27.70;;;;;;6234235;28;20053;-81
2022/05/25 09:24:28;;;;;;;8.70;0.63;;;35.80;28.20;;;;;;6234896;28;20121;-83
2022/05/25 09:27:45;;;;;;;0.90;0.30;;;36.50;28.40;;;;;;6212963;28;20074;-86
2022/05/25 09:31:02;;;;;;;0.75;0.20;;;37.50;27.50;;;;;;6243970;28;20049;-84
2022/05/25 09:34:10;;;;;;;6.65;1.40;;;37.70;27.60;;;;;;6209072;28;20054;-80
2022/05/25 09:37:19;;;;;;;1.75;0.20;;;36.20;27.30;;;;;;6230884;28;20042;-80
2022/05/25 09:40:24;;;;;;;1.35;0.20;;;34.10;28.80;;;;;;6240602;28;20416;-82
2022/05/25 09:43:26;;;;;;;2.15;0.22;;;34.00;28.60;;;;;;6236257;28;20060;-83
2022/05/25 09:46:31;;;;;;;3.22;0.30;;;34.50;28.10;;;;;;6235890;28;20046;-81
2022/05/25 09:49:39;;;;;;;3.95;0.63;;;35.00;28.30;;;;;;6241315;28;20109;-82
2022/05/25 09:52:46;;;;;;;0.50;0.20;;;35.80;28.20;;;;;;6239052;28;20050;-82
2022/05/25 09:55:53;;;;;;;1.38;0.30;;;36.40;27.30;;;;;;6236155;28;20049;-82
2022/05/25 09:58:57;;;;;;;2.92;0.30;;;36.30;27.40;;;;;;6235517;28;20048;-82
2022/05/25 10:02:00;;;;;;;1.88;0.35;;;35.70;27.70;;;;;;6238156;28;20041;-82
2022/05/25 10:05:15;;;;;;;2.15;0.30;;;35.80;27.60;;;;;;6236981;28;20536;-81
2022/05/25 10:08:27;;;;;;;2.13;0.28;;;35.20;27.90;;;;;;6232269;28;20124;-82
2022/05/25 10:11:31;;;;;;;3.08;0.30;;;33.60;29.20;;;;;;6230823;28;20049;-81
2022/05/25 10:14:35;;;;;;;1.45;0.20;;;32.80;30.00;;;;;;6229766;28;20045;-80
2022/05/25 10:17:40;;;;;;;3.45;0.38;;;32.10;30.30;;;;;;6231311;28;20068;-83
2022/05/25 10:20:47;;;;;;;4.90;0.15;;;31.00;30.70;;;;;;6234908;28;20037;-82
2022/05/25 10:23:49;;;;;;;2.63;0.30;;;29.70;32.00;;;;;;6232505;28;20155;-81
2022/05/25 10:26:55;;;;;;;0.77;0.20;;;28.80;33.90;;;;;;6233000;28;20046;-81
2022/05/25 10:36:56;;;;;;;2.10;0.28;;;28.70;34.10;;;;;;6205303;28;20042;-82
2022/05/25 10:40:03;;;;;;;2.80;0.50;;;29.00;33.80;;;;;;6211088;28;20034;-82
2022/05/25 10:43:05;;;;;;;1.13;0.20;;;29.10;33.20;;;;;;6224259;28;20114;-82
2022/05/25 10:46:07;;;;;;;0.45;0.15;;;29.30;32.70;;;;;;6228018;28;20075;-82
2022/05/25 10:49:21;;;;;;;1.52;0.50;;;29.60;33.00;;;;;;6240702;28;20132;-82
2022/05/25 10:52:32;;;;;;;1.40;0.30;;;29.80;32.90;;;;;;6236363;28;20081;-82
2022/05/25 10:55:41;;;;;;;2.42;0.50;;;29.80;32.30;;;;;;6237228;28;20061;-83
2022/05/25 10:59:10;;;;;;;1.00;0.73;;;29.70;32.30;;;;;;6233663;28;20060;-84
2022/05/25 11:02:23;;;;;;;;;;;29.50;32.60;;;;;;6232704;28;20041;-84
2022/05/25 11:22:36;;;;;;;5.03;0.30;;;29.70;32.40;;;;;;6132066;29;20047;-84
2022/05/25 11:25:53;;;;;;;0.75;0.10;;;29.60;32.20;;;;;;6233086;28;20053;-84
2022/05/25 11:29:06;;;;;;;1.60;0.20;;;29.60;32.10;;;;;;6217862;28;20727;-85
2022/05/25 11:32:27;;;;;;;0.95;0.30;;;29.90;32.30;;;;;;6230788;28;20054;-83
2022/05/25 11:35:48;;;;;;;0.85;0.10;;;30.20;31.50;;;;;;6232622;28;20120;-84
2022/05/25 11:39:04;;;;;;;0.45;0.03;;;30.30;31.60;;;;;;6237400;28;20053;-83
2022/05/25 11:42:16;;;;;;;0.57;0.20;;;30.40;31.00;;;;;;6243291;28;20042;-83
2022/05/25 11:45:39;;;;;;;1.55;0.15;;;30.50;30.70;;;;;;6220202;28;20042;-81
2022/05/25 11:57:25;;;;;;;1.25;0.30;;;30.70;30.30;;;;;;6234294;28;20042;-82
2022/05/25 12:05:13;;;;;;;0.10;0.00;;;30.60;30.30;;;;;;6161074;28;20058;-83
2022/05/25 12:12:30;;;;;;;0.40;0.17;;;30.70;29.70;;;;;;6224349;28;20404;-82
2022/05/25 12:15:37;;;;;;;0.32;0.03;;;30.70;30.00;;;;;;6221616;28;20056;-82
2022/05/25 12:18:44;;;;;;;0.20;0.10;;;30.60;30.00;;;;;;6230457;28;20050;-82
2022/05/25 12:21:50;;;;;;;1.10;0.30;;;30.40;30.30;;;;;;6209167;28;20052;-82
2022/05/25 12:24:55;;;;;;;6.07;0.95;;;30.20;30.90;;;;;;6209624;28;20050;-82
2022/05/25 12:28:01;;;;;;;0.73;0.17;;;30.10;30.60;;;;;;6210907;28;20521;-82
2022/05/25 12:31:06;;;;;;;2.63;0.20;;;30.20;30.80;;;;;;6215019;28;20046;-82
2022/05/25 12:57:38;;;;;;;0.20;0.10;;;29.90;31.20;;;;;;6181428;28;20027;-84
2022/05/25 13:01:04;;;;;;;0.63;0.10;;;29.90;31.70;;;;;;6187487;28;20061;-82
2022/05/25 13:04:44;;;;;;;0.90;0.10;;;30.10;31.60;;;;;;6195148;28;20050;-86
2022/05/25 13:07:47;;;;;;;2.03;0.20;;;30.30;31.60;;;;;;6230114;28;20057;-83
2022/05/25 13:11:02;;;;;;;2.63;0.32;;;30.50;31.00;;;;;;6243451;28;20053;-85
2022/05/25 13:14:08;;;;;;;0.90;0.10;;;30.90;31.30;;;;;;6226511;28;20033;-85
2022/05/25 13:17:30;;;;;;;1.45;0.20;;;30.90;30.40;;;;;;6227852;28;20551;-86
2022/05/25 13:21:15;;;;;;;2.50;0.20;;;31.00;30.60;;;;;;6203960;28;20046;-86
2022/05/25 13:24:39;;;;;;;0.00;0.00;;;31.00;31.60;;;;;;6219458;28;20041;-85
2022/05/25 13:28:06;;;;;;;1.60;0.10;;;31.20;30.70;;;;;;6241806;28;20045;-82
2022/05/25 13:31:24;;;;;;;0.40;0.00;;;31.30;30.00;;;;;;6241067;28;20054;-82
2022/05/25 13:34:32;;;;;;;1.92;0.10;;;31.60;29.70;;;;;;6223735;28;20092;-83
2022/05/25 13:37:39;;;;;;;2.42;0.30;;;31.90;30.00;;;;;;6222960;28;20077;-83
2022/05/25 13:40:44;;;;;;;3.10;0.17;;;31.70;30.10;;;;;;6222468;28;20053;-83
2022/05/25 13:44:04;;;;;;;0.93;0.20;;;31.50;30.70;;;;;;6238276;28;20068;-83
2022/05/25 13:47:07;;;;;;;0.50;0.20;;;31.10;30.90;;;;;;6250242;28;20094;-83
2022/05/25 13:50:09;;;;;;;2.53;0.20;;;30.70;31.10;;;;;;6248183;28;20050;-83
2022/05/25 13:53:28;;;;;;;1.85;0.17;;;30.50;30.90;;;;;;6247457;28;20046;-83
2022/05/25 13:56:32;;;;;;;3.50;0.20;;;30.50;31.20;;;;;;6246358;28;20049;-82
2022/05/25 13:59:38;;;;;;;0.63;0.10;;;30.50;30.60;;;;;;6246364;28;20077;-84
2022/05/25 14:02:46;;;;;;;1.77;0.20;;;30.20;30.90;;;;;;6246849;28;20416;-84
2022/05/25 14:05:50;;;;;;;;;;;30.00;32.00;;;;;;6234007;28;20114;-84
2022/05/25 14:12:18;;;;;;;2.10;0.40;;;29.70;31.70;;;;;;6241373;28;20042;-84
2022/05/25 14:15:23;;;;;;;3.50;0.30;;;29.50;31.70;;;;;;6243034;28;20042;-84
2022/05/25 14:18:28;;;;;;;0.55;0.15;;;29.30;31.60;;;;;;6243143;28;20054;-83
2022/05/25 14:21:35;;;;;;;1.50;0.20;;;29.40;33.20;;;;;;6241921;28;20129;-83
2022/05/25 14:24:40;;;;;;;1.83;0.15;;;29.70;32.40;;;;;;6225195;28;20049;-82
2022/05/25 14:27:46;;;;;;;3.03;0.40;;;30.00;31.40;;;;;;6242845;28;20102;-82
2022/05/25 14:30:55;;;;;;;0.60;0.20;;;30.10;31.70;;;;;;6230265;28;20084;-84
2022/05/25 14:34:07;;;;;;;0.43;0.13;;;30.20;30.70;;;;;;6217038;28;20074;-81
2022/05/25 14:37:10;;;;;;;5.20;0.32;;;30.10;31.20;;;;;;6215689;28;20126;-84
2022/05/25 14:40:19;;;;;;;0.95;0.20;;;30.10;30.70;;;;;;6214974;28;20069;-83
2022/05/25 14:43:37;;;;;;;0.32;0.10;;;30.00;30.50;;;;;;6220648;28;20052;-84
2022/05/25 14:46:39;;;;;;;2.30;0.17;;;29.90;30.90;;;;;;6236722;28;20296;-83
2022/05/25 14:49:48;;;;;;;2.00;0.40;;;29.80;31.20;;;;;;6235105;28;20127;-82
2022/05/25 14:52:59;;;;;;;0.95;0.20;;;29.90;31.60;;;;;;6233786;28;20057;-84
2022/05/25 14:56:03;;;;;;;1.90;0.17;;;30.00;31.30;;;;;;6233709;28;20049;-84
2022/05/25 14:59:05;;;;;;;0.98;0.13;;;30.20;31.20;;;;;;6234121;28;20046;-82
2022/05/25 15:02:08;;;;;;;4.25;0.30;;;30.20;30.60;;;;;;6234093;28;20092;-83
2022/05/25 15:05:30;;;;;;;2.65;0.20;;;30.30;30.60;;;;;;6234281;28;20045;-82
2022/05/25 15:08:34;;;;;;;0.32;0.10;;;30.10;31.00;;;;;;6232527;28;20070;-83
2022/05/25 15:11:38;;;;;;;0.22;0.13;;;29.80;31.20;;;;;;6233536;28;20042;-82
2022/05/25 15:18:34;;;;;;;0.45;0.22;;;29.30;31.40;;;;;;6233815;28;20094;-84
2022/05/25 15:21:38;;;;;;;2.70;0.30;;;28.90;31.80;;;;;;6234695;28;20050;-82
2022/05/25 15:24:41;;;;;;;2.40;0.32;;;28.50;31.90;;;;;;6234323;28;20046;-82
2022/05/25 15:27:58;;;;;;;2.47;0.40;;;28.30;32.60;;;;;;6238804;28;20120;-84
2022/05/25 15:31:01;;;;;;;0.70;0.10;;;28.20;33.20;;;;;;6239407;28;20050;-84
2022/05/25 15:34:03;;;;;;;3.00;0.20;;;27.90;33.40;;;;;;6228328;28;20125;-83
2022/05/25 15:37:17;;;;;;;3.10;0.30;;;27.80;33.90;;;;;;6240853;28;20046;-83
2022/05/25 15:40:19;;;;;;;3.33;0.20;;;27.80;33.40;;;;;;6239051;28;20041;-83
2022/05/25 15:43:21;;;;;;;0.60;0.15;;;27.60;34.30;;;;;;6241838;28;20485;-84
2022/05/25 15:46:24;;;;;;;1.10;0.20;;;27.50;34.40;;;;;;6245238;28;20133;-83
2022/05/25 15:49:26;;;;;;;1.48;0.22;;;27.10;35.00;;;;;;6240490;28;20069;-85
2022/05/25 15:52:29;;;;;;;2.25;0.22;;;26.80;34.90;;;;;;6239317;28;20060;-85
2022/05/25 15:55:31;;;;;;;1.13;0.30;;;26.50;35.30;;;;;;6240428;28;20114;-83
2022/05/25 15:58:33;;;;;;;1.05;0.20;;;26.30;35.00;;;;;;6242996;28;20108;-83
2022/05/25 16:01:36;;;;;;;1.58;0.30;;;26.10;35.50;;;;;;6242913;28;20109;-83
2022/05/25 16:04:40;;;;;;;4.53;0.47;;;26.10;35.00;;;;;;6238842;28;20053;-85
2022/05/25 16:11:03;;;;;;;0.70;0.10;;;26.10;35.30;;;;;;6244153;28;20077;-85
2022/05/25 16:14:05;;;;;;;0.50;0.25;;;26.20;35.80;;;;;;6236389;28;20049;-84
2022/05/25 16:17:19;;;;;;;7.82;0.85;;;26.20;35.40;;;;;;6223027;28;20053;-84
2022/05/25 16:20:21;;;;;;;1.25;0.45;;;26.20;35.40;;;;;;6230323;28;20073;-84
2022/05/25 16:23:24;;;;;;;4.07;0.50;;;26.30;36.20;;;;;;6241324;28;20180;-82
2022/05/25 16:26:26;;;;;;;1.17;0.28;;;26.60;36.10;;;;;;6243883;28;20057;-81
2022/05/25 16:29:28;;;;;;;2.03;0.32;;;26.80;34.40;;;;;;6246101;28;20057;-82
2022/05/25 16:32:30;;;;;;;8.68;1.45;;;27.00;33.80;;;;;;6244464;28;20043;-81
2022/05/25 16:35:33;;;;;;;1.95;0.30;;;26.90;33.80;;;;;;6244720;28;20049;-81
2022/05/25 16:38:36;;;;;;;1.77;0.35;;;26.90;34.00;;;;;;6249552;28;20046;-82
2022/05/25 16:41:40;;;;;;;2.35;0.10;;;26.70;34.40;;;;;;6245364;28;20069;-82
2022/05/25 16:44:45;;;;;;;0.85;0.38;;;26.50;34.40;;;;;;6246679;28;20052;-82
2022/05/25 16:47:47;;;;;;;1.27;0.50;;;26.30;35.00;;;;;;6247025;28;20045;-81
2022/05/25 16:50:49;;;;;;;2.13;0.73;;;26.40;35.40;;;;;;6228948;28;20046;-83
2022/05/25 16:53:54;;;;;;;3.42;0.85;;;26.40;35.50;;;;;;6221294;28;20077;-81
2022/05/25 16:56:56;;;;;;;1.60;0.60;;;26.40;35.60;;;;;;6215568;28;20050;-82
2022/05/25 16:59:58;;;;;;;1.35;0.50;;;26.30;35.10;;;;;;6218555;28;20065;-82
2022/05/25 17:03:00;;;;;;;1.77;0.30;;;26.10;35.50;;;;;;6216929;28;20095;-82
2022/05/25 17:06:02;;;;;;;6.07;1.00;;;26.00;35.50;;;;;;6216886;28;20048;-82
2022/05/25 17:09:05;;;;;;;2.72;1.17;;;25.90;35.90;;;;;;6214678;28;20110;-83
2022/05/25 17:12:08;;;;;;;2.08;0.50;;;25.80;36.00;;;;;;6213880;28;20045;-83
2022/05/25 17:15:11;;;;;;;3.78;0.40;;;25.60;36.40;;;;;;6240576;28;20054;-82
2022/05/25 17:18:12;;;;;;;0.28;0.10;;;25.40;36.80;;;;;;6235614;28;20130;-83
2022/05/25 17:21:13;;;;;;;3.60;0.30;;;25.30;37.20;;;;;;6230814;28;20049;-83
2022/05/25 17:24:16;;;;;;;2.33;0.40;;;25.30;37.30;;;;;;6233513;28;20045;-83
2022/05/25 17:27:20;;;;;;;1.85;0.10;;;25.20;37.60;;;;;;6234626;28;20137;-82
2022/05/25 17:30:22;;;;;;;4.30;0.20;;;25.00;37.70;;;;;;6231949;28;20056;-84
2022/05/25 17:33:24;;;;;;;1.50;0.30;;;25.00;37.70;;;;;;6233493;28;20045;-83
2022/05/25 17:43:06;;;;;;;0.43;0.10;;;24.90;38.30;;;;;;6244278;28;20045;-83
2022/05/25 17:46:07;;;;;;;6.22;0.40;;;24.80;38.20;;;;;;6236154;28;20122;-82
2022/05/25 17:49:09;;;;;;;2.22;0.35;;;24.70;38.60;;;;;;6243203;28;20065;-84
2022/05/25 17:52:12;;;;;;;0.82;0.20;;;24.70;39.00;;;;;;6239727;28;20042;-83
2022/05/25 17:55:15;;;;;;;1.05;0.45;;;24.60;38.80;;;;;;6241466;28;20536;-83
2022/05/25 17:58:17;;;;;;;1.52;0.30;;;24.50;39.60;;;;;;6241403;28;20102;-83
2022/05/25 18:01:19;;;;;;;1.50;0.20;;;24.50;40.20;;;;;;6239072;28;20052;-83